Radcliffe, United Kingdom
Current Conditions -  °F | °C
As of 8:20 AM on Saturday 29 Nov 2014 (Local Time) from EGCC Reporting Station
Drizzle Drizzle  
Wind Chill: 46°   Ceiling: Unl
Heat Index: 48°   Visibility: 4mi
Dew Point: 48°   Wind: 5mph
Humidity: 100%   Direction: 80°E
Pressure: 29.83"   Gusts: NA
Location:  53.56°N, 2.33°W
Report Text: EGCC 290820Z 08004KT 6000 -DZ FEW012 09/09 Q1010 NOSIG
Loading
Personal Weather Stations






























Interactive Weather Map New forecast layout! Learn more

10-Day Weather Forecast

Advertisements
Track Severe Weather on mobile